PGUM/GUM METAR and TAF weather

Enter ICAO airport designator
Station Type Date Time Source
PGUM METAR 2020/03/31 06:02 UTC NOAA

PGUM 310602Z 08016G24KT 10SM BKN023 29/23 A2987 RMK AO2 T02890228


Station Type Date Time Source
PGUM Decoded METAR 2020/03/31 06:02 UTC NOAA

Agana, Guam International Airport, GU, United States (PGUM) 13-29N 144-48E
Mar 31, 2020 - 02:02 AM EDT / 2020.03.31 0602 UTC
Wind: from the E (080 degrees) at 18 MPH (16 KT) gusting to 28 MPH (24 KT):0
Visibility: 10 mile(s):0
Sky conditions: mostly cloudy
Temperature: 84.0 F (28.9 C)
Dew Point: 73.0 F (22.8 C)
Relative Humidity: 69%
Pressure (altimeter): 29.87 in. Hg (1011 hPa)
ob: PGUM 310602Z 08016G24KT 10SM BKN023 29/23 A2987 RMK AO2 T02890228
cycle: 6

Station Type Date Time Source
PGUM TAF 2020/03/31 06:30 UTC NOAA

TAF PGUM 310525Z 3106/0112 08013G24KT P6SM VCSH FEW020 SCT050
FM310800 08011KT P6SM SCT025 SCT060
FM312300 08013G26KT P6SM VCSH FEW020 SCT050

Example: see airport list